sensor_id;sensor_type;location;lat;lon;timestamp;P1;durP1;ratioP1;P2;durP2;ratioP2
41883;SDS011;27566;50.930;5.328;2023-09-19T00:00:22;15.90;;;4.50;;
41883;SDS011;27566;50.930;5.328;2023-09-19T00:05:20;13.10;;;3.53;;
41883;SDS011;27566;50.930;5.328;2023-09-19T00:07:49;14.25;;;4.45;;
41883;SDS011;27566;50.930;5.328;2023-09-19T00:10:16;11.85;;;3.45;;
41883;SDS011;27566;50.930;5.328;2023-09-19T00:12:45;10.98;;;3.17;;
41883;SDS011;27566;50.930;5.328;2023-09-19T00:15:11;14.88;;;4.80;;
41883;SDS011;27566;50.930;5.328;2023-09-19T00:17:36;19.92;;;3.72;;
41883;SDS011;27566;50.930;5.328;2023-09-19T00:20:02;13.25;;;3.58;;
41883;SDS011;27566;50.930;5.328;2023-09-19T00:22:40;12.73;;;4.03;;
41883;SDS011;27566;50.930;5.328;2023-09-19T00:25:10;16.15;;;4.10;;
41883;SDS011;27566;50.930;5.328;2023-09-19T00:27:40;10.52;;;3.75;;
41883;SDS011;27566;50.930;5.328;2023-09-19T00:30:07;9.55;;;3.42;;
41883;SDS011;27566;50.930;5.328;2023-09-19T00:32:40;10.60;;;3.45;;
41883;SDS011;27566;50.930;5.328;2023-09-19T00:35:07;12.48;;;3.22;;
41883;SDS011;27566;50.930;5.328;2023-09-19T00:37:36;17.63;;;4.50;;
41883;SDS011;27566;50.930;5.328;2023-09-19T00:40:06;14.88;;;4.93;;
41883;SDS011;27566;50.930;5.328;2023-09-19T00:42:37;12.15;;;3.53;;
41883;SDS011;27566;50.930;5.328;2023-09-19T00:45:04;11.93;;;4.20;;
41883;SDS011;27566;50.930;5.328;2023-09-19T00:47:31;12.85;;;3.38;;
41883;SDS011;27566;50.930;5.328;2023-09-19T00:49:56;11.15;;;4.13;;
41883;SDS011;27566;50.930;5.328;2023-09-19T00:52:23;10.88;;;3.90;;
41883;SDS011;27566;50.930;5.328;2023-09-19T00:54:49;16.10;;;3.80;;
41883;SDS011;27566;50.930;5.328;2023-09-19T00:57:15;8.30;;;2.63;;
41883;SDS011;27566;50.930;5.328;2023-09-19T00:59:42;11.40;;;3.53;;
41883;SDS011;27566;50.930;5.328;2023-09-19T01:02:08;10.32;;;2.78;;
41883;SDS011;27566;50.930;5.328;2023-09-19T01:04:35;11.43;;;4.72;;
41883;SDS011;27566;50.930;5.328;2023-09-19T01:07:02;9.88;;;3.85;;
41883;SDS011;27566;50.930;5.328;2023-09-19T01:09:28;9.00;;;3.40;;
41883;SDS011;27566;50.930;5.328;2023-09-19T01:11:56;13.27;;;2.83;;
41883;SDS011;27566;50.930;5.328;2023-09-19T01:14:29;10.73;;;3.47;;
41883;SDS011;27566;50.930;5.328;2023-09-19T01:17:27;13.95;;;4.45;;
41883;SDS011;27566;50.930;5.328;2023-09-19T01:28:41;11.10;;;3.22;;
41883;SDS011;27566;50.930;5.328;2023-09-19T01:31:09;11.00;;;4.10;;
41883;SDS011;27566;50.930;5.328;2023-09-19T01:36:22;7.47;;;2.33;;
41883;SDS011;27566;50.930;5.328;2023-09-19T01:38:49;11.32;;;3.10;;
41883;SDS011;27566;50.930;5.328;2023-09-19T01:41:17;11.48;;;3.45;;
41883;SDS011;27566;50.930;5.328;2023-09-19T01:43:51;8.85;;;3.20;;
41883;SDS011;27566;50.930;5.328;2023-09-19T01:46:30;9.98;;;3.72;;
41883;SDS011;27566;50.930;5.328;2023-09-19T01:54:22;8.90;;;3.55;;
41883;SDS011;27566;50.930;5.328;2023-09-19T01:59:34;12.05;;;3.08;;
41883;SDS011;27566;50.930;5.328;2023-09-19T02:02:06;8.25;;;3.03;;
41883;SDS011;27566;50.930;5.328;2023-09-19T02:04:33;12.48;;;2.75;;
41883;SDS011;27566;50.930;5.328;2023-09-19T02:07:02;12.00;;;2.90;;
41883;SDS011;27566;50.930;5.328;2023-09-19T02:09:30;11.10;;;3.33;;
41883;SDS011;27566;50.930;5.328;2023-09-19T02:11:58;12.77;;;2.60;;
41883;SDS011;27566;50.930;5.328;2023-09-19T02:14:24;13.18;;;3.95;;
41883;SDS011;27566;50.930;5.328;2023-09-19T02:16:49;11.57;;;3.55;;
41883;SDS011;27566;50.930;5.328;2023-09-19T02:19:15;9.52;;;3.33;;
41883;SDS011;27566;50.930;5.328;2023-09-19T02:21:42;11.40;;;3.17;;
41883;SDS011;27566;50.930;5.328;2023-09-19T02:24:08;15.30;;;4.22;;
41883;SDS011;27566;50.930;5.328;2023-09-19T02:26:35;11.48;;;3.67;;
41883;SDS011;27566;50.930;5.328;2023-09-19T02:29:02;15.60;;;4.15;;
41883;SDS011;27566;50.930;5.328;2023-09-19T02:31:29;8.77;;;3.05;;
41883;SDS011;27566;50.930;5.328;2023-09-19T02:33:56;14.15;;;3.38;;
41883;SDS011;27566;50.930;5.328;2023-09-19T02:36:22;14.30;;;4.78;;
41883;SDS011;27566;50.930;5.328;2023-09-19T02:38:48;9.80;;;3.92;;
41883;SDS011;27566;50.930;5.328;2023-09-19T02:41:14;10.45;;;3.35;;
41883;SDS011;27566;50.930;5.328;2023-09-19T02:43:40;16.13;;;3.55;;
41883;SDS011;27566;50.930;5.328;2023-09-19T02:46:08;9.55;;;3.42;;
41883;SDS011;27566;50.930;5.328;2023-09-19T02:48:34;8.13;;;3.00;;
41883;SDS011;27566;50.930;5.328;2023-09-19T02:51:00;12.02;;;4.18;;
41883;SDS011;27566;50.930;5.328;2023-09-19T02:53:26;10.15;;;3.15;;
41883;SDS011;27566;50.930;5.328;2023-09-19T02:55:52;10.02;;;2.88;;
41883;SDS011;27566;50.930;5.328;2023-09-19T02:58:18;15.43;;;2.63;;
41883;SDS011;27566;50.930;5.328;2023-09-19T03:00:44;12.90;;;3.38;;
41883;SDS011;27566;50.930;5.328;2023-09-19T03:03:15;10.45;;;2.75;;
41883;SDS011;27566;50.930;5.328;2023-09-19T03:05:43;14.20;;;3.08;;
41883;SDS011;27566;50.930;5.328;2023-09-19T03:08:15;12.10;;;2.20;;
41883;SDS011;27566;50.930;5.328;2023-09-19T03:10:41;14.60;;;3.35;;
41883;SDS011;27566;50.930;5.328;2023-09-19T03:13:07;11.05;;;3.08;;
41883;SDS011;27566;50.930;5.328;2023-09-19T03:15:35;9.88;;;2.95;;
41883;SDS011;27566;50.930;5.328;2023-09-19T03:18:04;10.23;;;2.42;;
41883;SDS011;27566;50.930;5.328;2023-09-19T03:20:30;20.35;;;4.20;;
41883;SDS011;27566;50.930;5.328;2023-09-19T03:22:55;13.52;;;3.17;;
41883;SDS011;27566;50.930;5.328;2023-09-19T03:25:22;8.73;;;2.53;;
41883;SDS011;27566;50.930;5.328;2023-09-19T03:27:48;14.25;;;3.10;;
41883;SDS011;27566;50.930;5.328;2023-09-19T03:30:13;9.55;;;2.95;;
41883;SDS011;27566;50.930;5.328;2023-09-19T03:32:48;10.60;;;2.88;;
41883;SDS011;27566;50.930;5.328;2023-09-19T03:35:15;15.50;;;3.65;;
41883;SDS011;27566;50.930;5.328;2023-09-19T03:37:42;11.88;;;3.55;;
41883;SDS011;27566;50.930;5.328;2023-09-19T03:40:11;8.82;;;2.83;;
41883;SDS011;27566;50.930;5.328;2023-09-19T03:42:38;9.38;;;2.58;;
41883;SDS011;27566;50.930;5.328;2023-09-19T03:45:04;15.68;;;3.35;;
41883;SDS011;27566;50.930;5.328;2023-09-19T03:47:31;11.13;;;3.47;;
41883;SDS011;27566;50.930;5.328;2023-09-19T03:49:58;17.35;;;4.38;;
41883;SDS011;27566;50.930;5.328;2023-09-19T03:52:23;11.27;;;3.25;;
41883;SDS011;27566;50.930;5.328;2023-09-19T03:54:50;12.55;;;3.53;;
41883;SDS011;27566;50.930;5.328;2023-09-19T03:57:15;15.25;;;3.25;;
41883;SDS011;27566;50.930;5.328;2023-09-19T03:59:45;13.02;;;3.38;;
41883;SDS011;27566;50.930;5.328;2023-09-19T04:02:11;12.23;;;3.13;;
41883;SDS011;27566;50.930;5.328;2023-09-19T04:04:47;13.02;;;2.83;;
41883;SDS011;27566;50.930;5.328;2023-09-19T04:07:13;19.20;;;3.50;;
41883;SDS011;27566;50.930;5.328;2023-09-19T04:09:39;15.70;;;3.75;;
41883;SDS011;27566;50.930;5.328;2023-09-19T04:12:04;10.55;;;2.53;;
41883;SDS011;27566;50.930;5.328;2023-09-19T04:14:30;9.55;;;2.53;;
41883;SDS011;27566;50.930;5.328;2023-09-19T04:16:56;17.45;;;4.32;;
41883;SDS011;27566;50.930;5.328;2023-09-19T04:19:22;11.10;;;3.03;;
41883;SDS011;27566;50.930;5.328;2023-09-19T04:21:47;14.35;;;3.78;;
41883;SDS011;27566;50.930;5.328;2023-09-19T04:24:13;12.32;;;2.83;;
41883;SDS011;27566;50.930;5.328;2023-09-19T04:26:39;11.57;;;2.60;;
41883;SDS011;27566;50.930;5.328;2023-09-19T04:29:04;12.00;;;2.75;;
41883;SDS011;27566;50.930;5.328;2023-09-19T04:31:31;13.35;;;3.22;;
41883;SDS011;27566;50.930;5.328;2023-09-19T04:33:57;11.30;;;3.50;;
41883;SDS011;27566;50.930;5.328;2023-09-19T04:36:24;11.95;;;2.95;;
41883;SDS011;27566;50.930;5.328;2023-09-19T04:38:50;12.63;;;3.40;;
41883;SDS011;27566;50.930;5.328;2023-09-19T04:41:16;9.02;;;3.25;;
41883;SDS011;27566;50.930;5.328;2023-09-19T04:43:42;11.82;;;3.38;;
41883;SDS011;27566;50.930;5.328;2023-09-19T04:46:08;10.75;;;2.85;;
41883;SDS011;27566;50.930;5.328;2023-09-19T04:48:33;8.82;;;2.65;;
41883;SDS011;27566;50.930;5.328;2023-09-19T04:51:00;16.77;;;3.20;;
41883;SDS011;27566;50.930;5.328;2023-09-19T04:53:25;9.07;;;3.17;;
41883;SDS011;27566;50.930;5.328;2023-09-19T04:55:52;10.10;;;2.95;;
41883;SDS011;27566;50.930;5.328;2023-09-19T04:58:20;10.65;;;3.45;;
41883;SDS011;27566;50.930;5.328;2023-09-19T05:00:47;8.82;;;2.65;;
41883;SDS011;27566;50.930;5.328;2023-09-19T05:03:12;18.63;;;4.40;;
41883;SDS011;27566;50.930;5.328;2023-09-19T05:05:38;9.43;;;3.05;;
41883;SDS011;27566;50.930;5.328;2023-09-19T05:08:06;10.68;;;2.63;;
41883;SDS011;27566;50.930;5.328;2023-09-19T05:10:33;11.75;;;3.80;;
41883;SDS011;27566;50.930;5.328;2023-09-19T05:13:03;12.50;;;4.00;;
41883;SDS011;27566;50.930;5.328;2023-09-19T05:15:29;9.50;;;2.85;;
41883;SDS011;27566;50.930;5.328;2023-09-19T05:17:56;10.43;;;2.85;;
41883;SDS011;27566;50.930;5.328;2023-09-19T05:20:22;10.73;;;3.35;;
41883;SDS011;27566;50.930;5.328;2023-09-19T05:25:31;10.48;;;3.63;;
41883;SDS011;27566;50.930;5.328;2023-09-19T05:27:58;13.10;;;2.65;;
41883;SDS011;27566;50.930;5.328;2023-09-19T05:30:27;24.98;;;4.85;;
41883;SDS011;27566;50.930;5.328;2023-09-19T05:32:54;12.52;;;3.00;;
41883;SDS011;27566;50.930;5.328;2023-09-19T05:35:20;11.73;;;2.83;;
41883;SDS011;27566;50.930;5.328;2023-09-19T05:37:52;11.20;;;3.13;;
41883;SDS011;27566;50.930;5.328;2023-09-19T05:40:20;14.10;;;3.28;;
41883;SDS011;27566;50.930;5.328;2023-09-19T05:42:46;18.92;;;4.30;;
41883;SDS011;27566;50.930;5.328;2023-09-19T05:45:12;9.05;;;2.97;;
41883;SDS011;27566;50.930;5.328;2023-09-19T05:47:42;13.77;;;3.70;;
41883;SDS011;27566;50.930;5.328;2023-09-19T05:50:11;10.65;;;3.03;;
41883;SDS011;27566;50.930;5.328;2023-09-19T05:52:38;8.98;;;3.25;;
41883;SDS011;27566;50.930;5.328;2023-09-19T05:55:04;7.40;;;2.53;;
41883;SDS011;27566;50.930;5.328;2023-09-19T05:57:32;12.27;;;3.58;;
41883;SDS011;27566;50.930;5.328;2023-09-19T06:00:01;13.57;;;3.75;;
41883;SDS011;27566;50.930;5.328;2023-09-19T06:02:33;22.13;;;4.13;;
41883;SDS011;27566;50.930;5.328;2023-09-19T06:05:00;10.25;;;3.13;;
41883;SDS011;27566;50.930;5.328;2023-09-19T06:07:26;12.80;;;3.88;;
41883;SDS011;27566;50.930;5.328;2023-09-19T06:10:02;11.32;;;4.03;;
41883;SDS011;27566;50.930;5.328;2023-09-19T06:12:30;14.25;;;4.28;;
41883;SDS011;27566;50.930;5.328;2023-09-19T06:14:58;11.02;;;3.30;;
41883;SDS011;27566;50.930;5.328;2023-09-19T06:17:24;13.40;;;4.20;;
41883;SDS011;27566;50.930;5.328;2023-09-19T06:19:52;11.32;;;3.45;;
41883;SDS011;27566;50.930;5.328;2023-09-19T06:22:18;9.52;;;2.97;;
41883;SDS011;27566;50.930;5.328;2023-09-19T06:24:44;12.40;;;3.53;;
41883;SDS011;27566;50.930;5.328;2023-09-19T06:27:12;9.15;;;3.30;;
41883;SDS011;27566;50.930;5.328;2023-09-19T06:29:38;12.38;;;3.28;;
41883;SDS011;27566;50.930;5.328;2023-09-19T06:32:07;11.82;;;3.08;;
41883;SDS011;27566;50.930;5.328;2023-09-19T06:34:34;11.25;;;3.42;;
41883;SDS011;27566;50.930;5.328;2023-09-19T06:37:00;13.15;;;3.60;;
41883;SDS011;27566;50.930;5.328;2023-09-19T06:39:26;12.27;;;3.90;;
41883;SDS011;27566;50.930;5.328;2023-09-19T06:41:52;12.40;;;3.40;;
41883;SDS011;27566;50.930;5.328;2023-09-19T06:44:19;11.88;;;3.75;;
41883;SDS011;27566;50.930;5.328;2023-09-19T06:46:47;15.15;;;4.20;;
41883;SDS011;27566;50.930;5.328;2023-09-19T06:49:16;14.05;;;3.50;;
41883;SDS011;27566;50.930;5.328;2023-09-19T06:51:42;18.60;;;3.92;;
41883;SDS011;27566;50.930;5.328;2023-09-19T06:54:09;11.35;;;3.78;;
41883;SDS011;27566;50.930;5.328;2023-09-19T06:56:35;21.73;;;3.35;;
41883;SDS011;27566;50.930;5.328;2023-09-19T06:59:01;10.88;;;2.40;;
41883;SDS011;27566;50.930;5.328;2023-09-19T07:01:28;13.48;;;2.95;;
41883;SDS011;27566;50.930;5.328;2023-09-19T07:03:54;11.57;;;2.97;;
41883;SDS011;27566;50.930;5.328;2023-09-19T07:06:20;12.07;;;3.30;;
41883;SDS011;27566;50.930;5.328;2023-09-19T07:08:46;7.13;;;2.45;;
41883;SDS011;27566;50.930;5.328;2023-09-19T07:11:12;14.35;;;2.97;;
41883;SDS011;27566;50.930;5.328;2023-09-19T07:13:38;12.02;;;4.13;;
41883;SDS011;27566;50.930;5.328;2023-09-19T07:16:04;14.25;;;4.13;;
41883;SDS011;27566;50.930;5.328;2023-09-19T07:18:30;7.85;;;3.20;;
41883;SDS011;27566;50.930;5.328;2023-09-19T07:20:59;12.02;;;2.83;;
41883;SDS011;27566;50.930;5.328;2023-09-19T07:23:30;11.35;;;3.55;;
41883;SDS011;27566;50.930;5.328;2023-09-19T07:26:00;10.95;;;3.53;;
41883;SDS011;27566;50.930;5.328;2023-09-19T07:28:26;10.65;;;2.85;;
41883;SDS011;27566;50.930;5.328;2023-09-19T07:30:53;10.75;;;2.88;;
41883;SDS011;27566;50.930;5.328;2023-09-19T07:33:19;9.60;;;3.13;;
41883;SDS011;27566;50.930;5.328;2023-09-19T07:35:46;20.15;;;5.45;;
41883;SDS011;27566;50.930;5.328;2023-09-19T07:38:12;12.07;;;2.67;;
41883;SDS011;27566;50.930;5.328;2023-09-19T07:40:39;13.45;;;3.65;;
41883;SDS011;27566;50.930;5.328;2023-09-19T07:43:05;9.93;;;2.83;;
41883;SDS011;27566;50.930;5.328;2023-09-19T07:45:31;9.07;;;2.67;;
41883;SDS011;27566;50.930;5.328;2023-09-19T07:47:57;16.42;;;4.85;;
41883;SDS011;27566;50.930;5.328;2023-09-19T07:50:25;18.83;;;4.40;;
41883;SDS011;27566;50.930;5.328;2023-09-19T07:52:51;13.80;;;3.38;;
41883;SDS011;27566;50.930;5.328;2023-09-19T07:55:18;14.13;;;4.20;;
41883;SDS011;27566;50.930;5.328;2023-09-19T07:57:48;11.00;;;3.70;;
41883;SDS011;27566;50.930;5.328;2023-09-19T08:00:14;13.73;;;3.20;;
41883;SDS011;27566;50.930;5.328;2023-09-19T08:02:41;11.57;;;3.60;;
41883;SDS011;27566;50.930;5.328;2023-09-19T08:05:08;10.73;;;2.80;;
41883;SDS011;27566;50.930;5.328;2023-09-19T08:07:35;7.07;;;2.20;;
41883;SDS011;27566;50.930;5.328;2023-09-19T08:10:05;22.42;;;5.22;;
41883;SDS011;27566;50.930;5.328;2023-09-19T08:12:40;19.33;;;3.22;;
41883;SDS011;27566;50.930;5.328;2023-09-19T08:15:21;9.70;;;2.75;;
41883;SDS011;27566;50.930;5.328;2023-09-19T08:17:47;13.65;;;4.32;;
41883;SDS011;27566;50.930;5.328;2023-09-19T08:20:14;8.15;;;2.63;;
41883;SDS011;27566;50.930;5.328;2023-09-19T08:22:47;13.07;;;3.50;;
41883;SDS011;27566;50.930;5.328;2023-09-19T08:25:20;13.48;;;2.88;;
41883;SDS011;27566;50.930;5.328;2023-09-19T08:27:47;9.35;;;3.10;;
41883;SDS011;27566;50.930;5.328;2023-09-19T08:30:18;8.32;;;2.70;;
41883;SDS011;27566;50.930;5.328;2023-09-19T08:32:49;15.35;;;3.70;;
41883;SDS011;27566;50.930;5.328;2023-09-19T08:35:15;14.32;;;2.97;;
41883;SDS011;27566;50.930;5.328;2023-09-19T08:37:44;7.57;;;2.50;;
41883;SDS011;27566;50.930;5.328;2023-09-19T08:40:11;15.73;;;3.22;;
41883;SDS011;27566;50.930;5.328;2023-09-19T08:42:49;20.05;;;4.88;;
41883;SDS011;27566;50.930;5.328;2023-09-19T08:45:24;14.50;;;3.50;;
41883;SDS011;27566;50.930;5.328;2023-09-19T08:48:00;10.05;;;2.67;;
41883;SDS011;27566;50.930;5.328;2023-09-19T08:50:47;13.65;;;3.38;;
41883;SDS011;27566;50.930;5.328;2023-09-19T08:53:20;9.98;;;2.47;;
41883;SDS011;27566;50.930;5.328;2023-09-19T08:55:53;12.23;;;3.25;;
41883;SDS011;27566;50.930;5.328;2023-09-19T08:58:24;11.25;;;2.35;;
41883;SDS011;27566;50.930;5.328;2023-09-19T09:00:55;11.23;;;3.38;;
41883;SDS011;27566;50.930;5.328;2023-09-19T09:03:23;12.18;;;2.65;;
41883;SDS011;27566;50.930;5.328;2023-09-19T09:05:51;13.45;;;2.65;;
41883;SDS011;27566;50.930;5.328;2023-09-19T09:08:18;16.45;;;4.10;;
41883;SDS011;27566;50.930;5.328;2023-09-19T09:10:46;12.43;;;3.22;;
41883;SDS011;27566;50.930;5.328;2023-09-19T09:13:13;13.55;;;3.55;;
41883;SDS011;27566;50.930;5.328;2023-09-19T09:15:40;15.18;;;3.47;;
41883;SDS011;27566;50.930;5.328;2023-09-19T09:18:09;13.23;;;3.58;;
41883;SDS011;27566;50.930;5.328;2023-09-19T09:20:35;14.93;;;3.35;;
41883;SDS011;27566;50.930;5.328;2023-09-19T09:23:02;7.13;;;2.85;;
41883;SDS011;27566;50.930;5.328;2023-09-19T09:28:22;9.88;;;2.22;;
41883;SDS011;27566;50.930;5.328;2023-09-19T09:30:53;8.98;;;2.97;;
41883;SDS011;27566;50.930;5.328;2023-09-19T09:33:20;11.88;;;3.25;;
41883;SDS011;27566;50.930;5.328;2023-09-19T09:35:56;10.77;;;3.13;;
41883;SDS011;27566;50.930;5.328;2023-09-19T09:38:28;12.70;;;3.53;;
41883;SDS011;27566;50.930;5.328;2023-09-19T09:40:58;14.25;;;3.50;;
41883;SDS011;27566;50.930;5.328;2023-09-19T09:43:25;11.10;;;2.78;;
41883;SDS011;27566;50.930;5.328;2023-09-19T09:46:26;11.88;;;3.70;;
41883;SDS011;27566;50.930;5.328;2023-09-19T09:48:46;9.82;;;3.00;;
41883;SDS011;27566;50.930;5.328;2023-09-19T09:52:23;9.18;;;3.17;;
41883;SDS011;27566;50.930;5.328;2023-09-19T09:54:58;9.63;;;3.20;;
41883;SDS011;27566;50.930;5.328;2023-09-19T09:57:30;12.02;;;5.07;;
41883;SDS011;27566;50.930;5.328;2023-09-19T09:59:57;13.60;;;3.45;;
41883;SDS011;27566;50.930;5.328;2023-09-19T10:02:40;12.07;;;3.65;;
41883;SDS011;27566;50.930;5.328;2023-09-19T10:05:14;12.23;;;2.67;;
41883;SDS011;27566;50.930;5.328;2023-09-19T10:07:52;9.00;;;3.22;;
41883;SDS011;27566;50.930;5.328;2023-09-19T10:13:12;10.00;;;3.28;;
41883;SDS011;27566;50.930;5.328;2023-09-19T10:15:43;11.10;;;2.33;;
41883;SDS011;27566;50.930;5.328;2023-09-19T10:18:17;11.13;;;2.63;;
41883;SDS011;27566;50.930;5.328;2023-09-19T10:20:46;10.23;;;2.45;;
41883;SDS011;27566;50.930;5.328;2023-09-19T10:23:14;10.18;;;2.67;;
41883;SDS011;27566;50.930;5.328;2023-09-19T10:25:48;12.35;;;3.35;;
41883;SDS011;27566;50.930;5.328;2023-09-19T10:28:16;9.73;;;3.65;;
41883;SDS011;27566;50.930;5.328;2023-09-19T10:30:47;8.85;;;3.05;;
41883;SDS011;27566;50.930;5.328;2023-09-19T10:33:16;6.88;;;2.35;;
41883;SDS011;27566;50.930;5.328;2023-09-19T10:35:46;15.75;;;4.03;;
41883;SDS011;27566;50.930;5.328;2023-09-19T10:38:14;6.55;;;2.47;;
41883;SDS011;27566;50.930;5.328;2023-09-19T10:40:44;8.75;;;2.92;;
41883;SDS011;27566;50.930;5.328;2023-09-19T10:43:15;7.47;;;2.88;;
41883;SDS011;27566;50.930;5.328;2023-09-19T10:45:45;8.02;;;2.75;;
41883;SDS011;27566;50.930;5.328;2023-09-19T10:48:17;5.28;;;2.22;;
41883;SDS011;27566;50.930;5.328;2023-09-19T10:50:48;8.75;;;2.38;;
41883;SDS011;27566;50.930;5.328;2023-09-19T10:53:16;8.57;;;2.13;;
41883;SDS011;27566;50.930;5.328;2023-09-19T10:55:55;8.40;;;2.22;;
41883;SDS011;27566;50.930;5.328;2023-09-19T10:58:28;8.85;;;3.28;;
41883;SDS011;27566;50.930;5.328;2023-09-19T11:00:59;6.18;;;1.83;;
41883;SDS011;27566;50.930;5.328;2023-09-19T11:06:02;9.07;;;1.95;;
41883;SDS011;27566;50.930;5.328;2023-09-19T11:16:40;8.82;;;2.17;;
41883;SDS011;27566;50.930;5.328;2023-09-19T11:30:37;8.10;;;2.22;;
41883;SDS011;27566;50.930;5.328;2023-09-19T11:33:24;8.55;;;2.42;;
41883;SDS011;27566;50.930;5.328;2023-09-19T11:43:51;7.72;;;2.17;;
41883;SDS011;27566;50.930;5.328;2023-09-19T11:46:24;4.65;;;2.28;;
41883;SDS011;27566;50.930;5.328;2023-09-19T11:48:53;5.88;;;1.73;;
41883;SDS011;27566;50.930;5.328;2023-09-19T11:51:21;4.50;;;1.50;;
41883;SDS011;27566;50.930;5.328;2023-09-19T11:53:55;7.60;;;2.40;;
41883;SDS011;27566;50.930;5.328;2023-09-19T11:56:25;8.45;;;2.28;;
41883;SDS011;27566;50.930;5.328;2023-09-19T11:58:57;8.10;;;2.15;;
41883;SDS011;27566;50.930;5.328;2023-09-19T12:01:28;6.13;;;1.30;;
41883;SDS011;27566;50.930;5.328;2023-09-19T12:03:59;9.38;;;1.75;;
41883;SDS011;27566;50.930;5.328;2023-09-19T12:06:27;6.20;;;2.50;;
41883;SDS011;27566;50.930;5.328;2023-09-19T12:09:01;7.13;;;1.88;;
41883;SDS011;27566;50.930;5.328;2023-09-19T12:11:32;5.72;;;1.48;;
41883;SDS011;27566;50.930;5.328;2023-09-19T12:13:58;5.53;;;1.98;;
41883;SDS011;27566;50.930;5.328;2023-09-19T12:16:28;5.53;;;1.25;;
41883;SDS011;27566;50.930;5.328;2023-09-19T12:18:56;6.38;;;1.77;;
41883;SDS011;27566;50.930;5.328;2023-09-19T12:21:29;6.88;;;2.60;;
41883;SDS011;27566;50.930;5.328;2023-09-19T12:24:07;6.93;;;1.40;;
41883;SDS011;27566;50.930;5.328;2023-09-19T12:26:47;6.95;;;1.88;;
41883;SDS011;27566;50.930;5.328;2023-09-19T12:29:18;6.95;;;2.05;;
41883;SDS011;27566;50.930;5.328;2023-09-19T12:31:58;6.45;;;1.75;;
41883;SDS011;27566;50.930;5.328;2023-09-19T12:34:25;6.93;;;1.75;;
41883;SDS011;27566;50.930;5.328;2023-09-19T12:39:44;6.50;;;1.48;;
41883;SDS011;27566;50.930;5.328;2023-09-19T12:42:14;3.95;;;1.20;;
41883;SDS011;27566;50.930;5.328;2023-09-19T12:44:45;5.97;;;1.30;;
41883;SDS011;27566;50.930;5.328;2023-09-19T12:47:16;7.35;;;1.30;;
41883;SDS011;27566;50.930;5.328;2023-09-19T12:52:36;4.88;;;1.00;;
41883;SDS011;27566;50.930;5.328;2023-09-19T12:55:03;7.75;;;1.83;;
41883;SDS011;27566;50.930;5.328;2023-09-19T12:57:35;5.85;;;1.30;;
41883;SDS011;27566;50.930;5.328;2023-09-19T13:00:05;5.70;;;1.05;;
41883;SDS011;27566;50.930;5.328;2023-09-19T13:02:32;3.28;;;1.08;;
41883;SDS011;27566;50.930;5.328;2023-09-19T13:05:00;3.10;;;1.10;;
41883;SDS011;27566;50.930;5.328;2023-09-19T13:10:24;5.55;;;1.35;;
41883;SDS011;27566;50.930;5.328;2023-09-19T13:12:51;3.88;;;0.82;;
41883;SDS011;27566;50.930;5.328;2023-09-19T13:15:17;5.10;;;1.05;;
41883;SDS011;27566;50.930;5.328;2023-09-19T13:17:49;2.70;;;1.30;;
41883;SDS011;27566;50.930;5.328;2023-09-19T13:20:25;2.88;;;1.30;;
41883;SDS011;27566;50.930;5.328;2023-09-19T13:22:57;5.25;;;1.63;;
41883;SDS011;27566;50.930;5.328;2023-09-19T13:25:33;3.35;;;1.00;;
41883;SDS011;27566;50.930;5.328;2023-09-19T13:28:00;4.85;;;1.77;;
41883;SDS011;27566;50.930;5.328;2023-09-19T13:30:29;4.80;;;1.20;;
41883;SDS011;27566;50.930;5.328;2023-09-19T13:33:06;4.35;;;1.48;;
41883;SDS011;27566;50.930;5.328;2023-09-19T13:35:35;4.68;;;1.52;;
41883;SDS011;27566;50.930;5.328;2023-09-19T13:38:06;5.40;;;2.13;;
41883;SDS011;27566;50.930;5.328;2023-09-19T13:40:36;6.32;;;2.20;;
41883;SDS011;27566;50.930;5.328;2023-09-19T13:46:01;3.63;;;1.90;;
41883;SDS011;27566;50.930;5.328;2023-09-19T13:48:27;3.90;;;1.55;;
41883;SDS011;27566;50.930;5.328;2023-09-19T13:50:55;6.53;;;1.50;;
41883;SDS011;27566;50.930;5.328;2023-09-19T13:53:29;4.68;;;1.63;;
41883;SDS011;27566;50.930;5.328;2023-09-19T13:55:55;3.17;;;1.42;;
41883;SDS011;27566;50.930;5.328;2023-09-19T13:58:21;7.15;;;1.88;;
41883;SDS011;27566;50.930;5.328;2023-09-19T14:00:52;4.97;;;1.40;;
41883;SDS011;27566;50.930;5.328;2023-09-19T14:03:20;3.67;;;1.75;;
41883;SDS011;27566;50.930;5.328;2023-09-19T14:05:46;8.95;;;2.63;;
41883;SDS011;27566;50.930;5.328;2023-09-19T14:08:13;7.88;;;2.22;;
41883;SDS011;27566;50.930;5.328;2023-09-19T14:10:39;4.68;;;1.40;;
41883;SDS011;27566;50.930;5.328;2023-09-19T14:13:05;3.78;;;1.35;;
41883;SDS011;27566;50.930;5.328;2023-09-19T14:15:31;11.23;;;2.83;;
41883;SDS011;27566;50.930;5.328;2023-09-19T14:18:03;4.63;;;1.92;;
41883;SDS011;27566;50.930;5.328;2023-09-19T14:20:29;5.57;;;1.52;;
41883;SDS011;27566;50.930;5.328;2023-09-19T14:23:10;8.70;;;2.55;;
41883;SDS011;27566;50.930;5.328;2023-09-19T14:25:36;8.02;;;2.53;;
41883;SDS011;27566;50.930;5.328;2023-09-19T14:28:06;7.78;;;2.55;;
41883;SDS011;27566;50.930;5.328;2023-09-19T14:30:33;5.90;;;2.25;;
41883;SDS011;27566;50.930;5.328;2023-09-19T14:33:03;5.18;;;1.85;;
41883;SDS011;27566;50.930;5.328;2023-09-19T14:35:29;9.68;;;2.55;;
41883;SDS011;27566;50.930;5.328;2023-09-19T14:37:58;9.10;;;3.05;;
41883;SDS011;27566;50.930;5.328;2023-09-19T14:40:27;7.30;;;2.97;;
41883;SDS011;27566;50.930;5.328;2023-09-19T14:42:53;10.13;;;3.05;;
41883;SDS011;27566;50.930;5.328;2023-09-19T14:45:22;7.82;;;2.13;;
41883;SDS011;27566;50.930;5.328;2023-09-19T14:47:50;4.43;;;2.20;;
41883;SDS011;27566;50.930;5.328;2023-09-19T14:50:21;6.90;;;2.00;;
41883;SDS011;27566;50.930;5.328;2023-09-19T14:52:47;8.90;;;2.63;;
41883;SDS011;27566;50.930;5.328;2023-09-19T14:55:15;7.43;;;2.20;;
41883;SDS011;27566;50.930;5.328;2023-09-19T14:57:41;2.85;;;1.20;;
41883;SDS011;27566;50.930;5.328;2023-09-19T15:00:10;6.47;;;2.83;;
41883;SDS011;27566;50.930;5.328;2023-09-19T15:02:38;5.32;;;2.38;;
41883;SDS011;27566;50.930;5.328;2023-09-19T15:05:05;5.20;;;2.42;;
41883;SDS011;27566;50.930;5.328;2023-09-19T15:07:34;5.00;;;1.98;;
41883;SDS011;27566;50.930;5.328;2023-09-19T15:10:02;3.95;;;1.63;;
41883;SDS011;27566;50.930;5.328;2023-09-19T15:12:32;5.03;;;2.35;;
41883;SDS011;27566;50.930;5.328;2023-09-19T15:14:58;8.93;;;2.67;;
41883;SDS011;27566;50.930;5.328;2023-09-19T15:17:24;5.75;;;2.20;;
41883;SDS011;27566;50.930;5.328;2023-09-19T15:19:50;7.47;;;2.95;;
41883;SDS011;27566;50.930;5.328;2023-09-19T15:22:16;5.53;;;2.30;;
41883;SDS011;27566;50.930;5.328;2023-09-19T15:24:42;5.75;;;2.72;;
41883;SDS011;27566;50.930;5.328;2023-09-19T15:27:08;8.15;;;2.00;;
41883;SDS011;27566;50.930;5.328;2023-09-19T15:29:34;9.65;;;3.08;;
41883;SDS011;27566;50.930;5.328;2023-09-19T15:32:00;8.63;;;2.50;;
41883;SDS011;27566;50.930;5.328;2023-09-19T15:34:28;5.95;;;2.15;;
41883;SDS011;27566;50.930;5.328;2023-09-19T15:36:55;5.03;;;2.17;;
41883;SDS011;27566;50.930;5.328;2023-09-19T15:39:21;6.22;;;2.60;;
41883;SDS011;27566;50.930;5.328;2023-09-19T15:41:47;6.93;;;2.05;;
41883;SDS011;27566;50.930;5.328;2023-09-19T15:44:17;10.73;;;2.75;;
41883;SDS011;27566;50.930;5.328;2023-09-19T15:46:47;9.60;;;2.60;;
41883;SDS011;27566;50.930;5.328;2023-09-19T15:49:13;8.48;;;3.17;;
41883;SDS011;27566;50.930;5.328;2023-09-19T15:51:39;6.68;;;2.13;;
41883;SDS011;27566;50.930;5.328;2023-09-19T15:54:14;7.03;;;2.13;;
41883;SDS011;27566;50.930;5.328;2023-09-19T15:56:44;5.97;;;2.38;;
41883;SDS011;27566;50.930;5.328;2023-09-19T15:59:12;10.88;;;3.55;;
41883;SDS011;27566;50.930;5.328;2023-09-19T16:01:38;6.70;;;2.72;;